createdAt,value
2022-12-03T00:00:59.244Z,6.87
2022-12-03T00:05:02.240Z,6.88
2022-12-03T00:09:05.908Z,6.60
2022-12-03T00:13:09.107Z,6.73
2022-12-03T00:17:13.457Z,6.57
2022-12-03T00:21:16.621Z,7.45
2022-12-03T00:25:19.644Z,6.87
2022-12-03T00:29:22.599Z,6.83
2022-12-03T00:33:27.007Z,6.80
2022-12-03T00:37:30.071Z,6.97
2022-12-03T00:41:33.059Z,6.63
2022-12-03T00:45:36.071Z,6.37
2022-12-03T00:49:41.287Z,7.37
2022-12-03T00:53:44.489Z,8.13
2022-12-03T00:57:47.485Z,7.03
2022-12-03T01:01:50.573Z,7.37
2022-12-03T01:05:56.324Z,6.70
2022-12-03T01:09:59.421Z,6.90
2022-12-03T01:14:02.449Z,7.07
2022-12-03T01:18:05.606Z,7.03
2022-12-03T01:22:09.956Z,6.73
2022-12-03T01:26:13.028Z,7.03
2022-12-03T01:30:16.339Z,6.95
2022-12-03T01:34:18.393Z,7.00
2022-12-03T01:38:22.847Z,7.38
2022-12-03T01:42:27.638Z,6.78
2022-12-03T01:46:42.056Z,7.45
2022-12-03T01:50:46.407Z,6.85
2022-12-03T01:54:54.900Z,7.05
2022-12-03T01:58:58.205Z,6.85
2022-12-03T02:03:03.467Z,7.20
2022-12-03T02:07:26.068Z,6.95
2022-12-03T02:11:34.515Z,6.40
2022-12-03T02:15:40.221Z,6.70
2022-12-03T02:19:43.436Z,6.00
2022-12-03T02:23:59.492Z,6.17
2022-12-03T02:28:06.992Z,6.57
2022-12-03T02:32:10.013Z,6.30
2022-12-03T02:36:13.792Z,5.70
2022-12-03T02:40:21.278Z,5.88
2022-12-03T02:44:25.728Z,6.30
2022-12-03T02:48:33.503Z,5.93
2022-12-03T02:52:37.069Z,6.10
2022-12-03T02:56:40.120Z,6.82
2022-12-03T03:00:45.117Z,5.65
2022-12-03T03:04:48.732Z,5.80
2022-12-03T03:08:52.231Z,6.10
2022-12-03T03:12:57.176Z,6.68
2022-12-03T03:17:01.760Z,6.05
2022-12-03T03:21:05.819Z,5.85
2022-12-03T03:25:11.939Z,5.90
2022-12-03T03:29:15.435Z,6.55
2022-12-03T03:33:20.260Z,6.70
2022-12-03T03:37:23.627Z,6.45
2022-12-03T03:41:27.917Z,5.72
2022-12-03T03:45:31.022Z,6.15
2022-12-03T03:49:35.689Z,6.70
2022-12-03T03:53:39.983Z,6.25
2022-12-03T03:57:43.508Z,5.95
2022-12-03T04:01:46.731Z,6.32
2022-12-03T04:05:51.372Z,6.68
2022-12-03T04:09:54.372Z,6.03
2022-12-03T04:13:56.385Z,6.10
2022-12-03T04:18:16.769Z,6.13
2022-12-03T04:22:38.841Z,5.78
2022-12-03T04:27:00.366Z,5.70
2022-12-03T04:31:23.711Z,6.68
2022-12-03T04:35:43.751Z,6.25
2022-12-03T04:39:48.431Z,7.43
2022-12-03T04:44:05.249Z,6.60
2022-12-03T04:48:08.250Z,8.05
2022-12-03T04:52:12.860Z,7.35
2022-12-03T04:56:17.381Z,8.40
2022-12-03T05:00:20.909Z,8.55
2022-12-03T05:04:24.203Z,7.75
2022-12-03T05:08:27.197Z,7.53
2022-12-03T05:12:31.547Z,8.05
2022-12-03T05:16:34.812Z,8.27
2022-12-03T05:20:47.103Z,8.40
2022-12-03T05:24:54.497Z,8.50
2022-12-03T05:28:59.088Z,8.18
2022-12-03T05:33:02.194Z,8.15
2022-12-03T05:37:05.234Z,8.40
2022-12-03T05:41:28.931Z,8.55
2022-12-03T05:45:36.404Z,8.83
2022-12-03T05:49:39.413Z,8.77
2022-12-03T05:53:42.567Z,9.43
2022-12-03T05:57:46.366Z,8.25
2022-12-03T06:01:50.724Z,8.15
2022-12-03T06:05:53.954Z,8.30
2022-12-03T06:09:56.996Z,8.80
2022-12-03T06:13:59.948Z,7.95
2022-12-03T06:18:04.419Z,8.50
2022-12-03T06:22:07.485Z,8.13
2022-12-03T06:26:10.672Z,7.68
2022-12-03T06:30:15.473Z,7.93
2022-12-03T06:34:19.898Z,7.50
2022-12-03T06:38:23.413Z,7.05
2022-12-03T06:42:26.412Z,8.05
2022-12-03T06:46:29.516Z,7.25
2022-12-03T06:50:34.132Z,7.25
2022-12-03T06:54:37.088Z,7.75
2022-12-03T06:58:40.026Z,8.32
2022-12-03T07:02:44.657Z,8.27
2022-12-03T07:06:51.029Z,8.45
2022-12-03T07:10:54.053Z,8.05
2022-12-03T07:14:57.357Z,7.18
2022-12-03T07:19:00.663Z,8.23
2022-12-03T07:23:05.078Z,8.20
2022-12-03T07:27:08.116Z,6.60
2022-12-03T07:31:11.181Z,7.50
2022-12-03T07:35:14.850Z,6.97
2022-12-03T07:39:19.290Z,8.23
2022-12-03T07:43:22.275Z,7.95
2022-12-03T07:47:25.501Z,8.10
2022-12-03T07:51:32.169Z,8.50
2022-12-03T07:55:36.993Z,8.40
2022-12-03T07:59:40.154Z,7.97
2022-12-03T08:03:45.453Z,7.72
2022-12-03T08:07:48.683Z,8.48
2022-12-03T08:11:53.379Z,8.55
2022-12-03T08:15:57.085Z,7.85
2022-12-03T08:20:00.403Z,8.25
2022-12-03T08:24:14.679Z,8.88
2022-12-03T08:28:21.654Z,8.52
2022-12-03T08:32:25.344Z,7.88
2022-12-03T08:36:31.919Z,8.75
2022-12-03T08:40:36.500Z,7.60
2022-12-03T08:44:42.532Z,7.45
2022-12-03T08:48:48.993Z,8.05
2022-12-03T08:52:54.265Z,8.27
2022-12-03T08:56:57.728Z,7.03
2022-12-03T09:01:17.492Z,8.23
2022-12-03T09:05:23.284Z,8.52
2022-12-03T09:09:26.647Z,8.45
2022-12-03T09:13:30.579Z,8.82
2022-12-03T09:17:34.968Z,9.70
2022-12-03T09:21:38.001Z,9.68
2022-12-03T09:25:40.963Z,9.02
2022-12-03T09:29:43.963Z,9.82
2022-12-03T09:33:48.390Z,8.30
2022-12-03T09:37:51.458Z,9.80
2022-12-03T09:41:56.377Z,9.45
2022-12-03T09:45:59.654Z,8.95
2022-12-03T09:50:04.827Z,9.60
2022-12-03T09:54:08.628Z,9.20
2022-12-03T09:58:13.663Z,9.02
2022-12-03T10:02:22.328Z,9.40
2022-12-03T10:06:26.696Z,8.93
2022-12-03T10:10:30.935Z,8.75
2022-12-03T10:14:33.991Z,8.75
2022-12-03T10:18:41.571Z,9.35
2022-12-03T10:22:48.728Z,9.05
2022-12-03T10:26:56.640Z,9.25
2022-12-03T10:31:00.509Z,8.05
2022-12-03T10:35:12.043Z,8.38
2022-12-03T10:39:17.894Z,9.40
2022-12-03T10:43:26.307Z,9.35
2022-12-03T10:47:29.628Z,9.10
2022-12-03T10:51:32.836Z,8.60
2022-12-03T10:55:40.779Z,9.27
2022-12-03T10:59:44.208Z,10.20
2022-12-03T11:03:47.688Z,10.13
2022-12-03T11:07:51.325Z,10.38
2022-12-03T11:11:56.048Z,10.85
2022-12-03T11:16:00.234Z,9.20
2022-12-03T11:20:03.456Z,10.05
2022-12-03T11:24:27.451Z,10.77
2022-12-03T11:28:56.655Z,9.48
2022-12-03T11:33:03.065Z,10.52
2022-12-03T11:37:24.912Z,9.95
2022-12-03T11:41:37.116Z,9.75
2022-12-03T11:45:41.545Z,10.02
2022-12-03T11:49:49.266Z,10.93
2022-12-03T11:53:54.092Z,11.30
2022-12-03T11:57:59.463Z,10.70
2022-12-03T12:02:21.121Z,11.10
2022-12-03T12:06:24.130Z,11.80
2022-12-03T12:10:41.958Z,10.68
2022-12-03T12:14:46.081Z,11.25
2022-12-03T12:18:55.135Z,11.75
2022-12-03T12:23:23.993Z,12.10
2022-12-03T12:27:33.101Z,10.98
2022-12-03T12:31:36.232Z,11.77
2022-12-03T12:35:39.332Z,11.65
2022-12-03T12:39:44.058Z,12.02
2022-12-03T12:43:47.271Z,12.30
2022-12-03T12:47:57.322Z,12.18
2022-12-03T12:52:01.235Z,11.73
2022-12-03T12:56:12.511Z,12.93
2022-12-03T13:00:20.843Z,13.23
2022-12-03T13:04:25.220Z,11.65
2022-12-03T13:08:31.673Z,12.77
2022-12-03T13:12:37.991Z,11.85
2022-12-03T13:16:41.246Z,13.05
2022-12-03T13:20:44.295Z,12.70
2022-12-03T13:24:50.659Z,12.68
2022-12-03T13:28:57.864Z,12.68
2022-12-03T13:33:02.118Z,13.55
2022-12-03T13:37:13.414Z,12.32
2022-12-03T13:41:37.458Z,14.25
2022-12-03T13:45:44.816Z,13.43
2022-12-03T13:49:53.765Z,12.93
2022-12-03T13:53:59.156Z,13.43
2022-12-03T13:58:02.171Z,13.95
2022-12-03T14:02:06.570Z,12.63
2022-12-03T14:06:09.663Z,13.40
2022-12-03T14:10:13.654Z,13.88
2022-12-03T14:14:16.964Z,13.13
2022-12-03T14:18:21.393Z,12.73
2022-12-03T14:22:25.457Z,13.52
2022-12-03T14:26:28.493Z,14.88
2022-12-03T14:30:31.486Z,12.82
2022-12-03T14:34:35.832Z,13.65
2022-12-03T14:38:39.091Z,13.25
2022-12-03T14:42:42.071Z,13.68
2022-12-03T14:46:45.056Z,11.23
2022-12-03T14:50:49.463Z,13.27
2022-12-03T14:54:52.474Z,11.77
2022-12-03T14:58:55.428Z,11.55
2022-12-03T15:02:58.517Z,12.40
2022-12-03T15:07:05.008Z,11.52
2022-12-03T15:11:08.141Z,11.15
2022-12-03T15:15:12.015Z,11.88
2022-12-03T15:19:15.245Z,11.85
2022-12-03T15:23:19.622Z,10.25
2022-12-03T15:27:22.625Z,11.25
2022-12-03T15:31:25.894Z,10.23
2022-12-03T15:35:29.229Z,11.02
2022-12-03T15:39:36.419Z,11.13
2022-12-03T15:43:39.475Z,11.55
2022-12-03T15:47:42.504Z,11.10
2022-12-03T15:51:45.593Z,11.52
2022-12-03T15:55:49.940Z,11.05
2022-12-03T15:59:53.115Z,10.73
2022-12-03T16:03:56.454Z,10.55
2022-12-03T16:07:59.516Z,10.02
2022-12-03T16:12:04.354Z,10.82
2022-12-03T16:16:07.687Z,10.25
2022-12-03T16:20:11.247Z,10.05
2022-12-03T16:24:14.338Z,8.80
2022-12-03T16:28:19.037Z,9.98
2022-12-03T16:32:21.991Z,10.27
2022-12-03T16:36:25.110Z,11.45
2022-12-03T16:40:28.155Z,11.20
2022-12-03T16:44:54.104Z,10.43
2022-12-03T16:48:58.771Z,11.10
2022-12-03T16:53:01.740Z,10.88
2022-12-03T16:57:05.172Z,12.20
2022-12-03T17:01:10.005Z,11.63
2022-12-03T17:05:13.116Z,10.15
2022-12-03T17:09:16.211Z,11.80
2022-12-03T17:13:19.860Z,11.13
2022-12-03T17:17:24.276Z,11.27
2022-12-03T17:21:30.871Z,12.45
2022-12-03T17:25:36.967Z,11.60
2022-12-03T17:29:40.038Z,11.65
2022-12-03T17:33:45.527Z,13.05
2022-12-03T17:37:48.797Z,12.45
2022-12-03T17:41:53.537Z,11.93
2022-12-03T17:45:56.620Z,11.73
2022-12-03T17:50:00.963Z,12.35
2022-12-03T17:54:04.013Z,12.48
2022-12-03T17:58:07.487Z,13.43
2022-12-03T18:02:10.508Z,13.27
2022-12-03T18:06:14.914Z,13.20
2022-12-03T18:10:18.528Z,12.88
2022-12-03T18:14:21.910Z,13.18
2022-12-03T18:18:24.936Z,12.45
2022-12-03T18:22:29.901Z,13.15
2022-12-03T18:26:33.170Z,12.98
2022-12-03T18:30:36.268Z,12.90
2022-12-03T18:34:39.285Z,13.30
2022-12-03T18:38:43.782Z,13.13
2022-12-03T18:42:47.150Z,13.00
2022-12-03T18:46:54.705Z,13.35
2022-12-03T18:50:57.917Z,12.85
2022-12-03T18:55:02.352Z,13.48
2022-12-03T18:59:06.623Z,11.95
2022-12-03T19:03:09.723Z,12.38
2022-12-03T19:07:13.281Z,12.15
2022-12-03T19:11:17.673Z,13.00
2022-12-03T19:15:21.071Z,12.43
2022-12-03T19:19:27.240Z,12.60
2022-12-03T19:23:30.242Z,12.00
2022-12-03T19:27:34.687Z,11.57
2022-12-03T19:31:38.132Z,12.13
2022-12-03T19:35:41.239Z,12.98
2022-12-03T19:39:44.247Z,12.23
2022-12-03T19:43:52.171Z,12.20
2022-12-03T19:47:55.178Z,12.93
2022-12-03T19:51:58.160Z,12.95
2022-12-03T19:56:02.777Z,12.85
2022-12-03T20:00:09.114Z,11.98
2022-12-03T20:04:15.236Z,14.45
2022-12-03T20:08:18.434Z,13.15
2022-12-03T20:12:21.571Z,12.82
2022-12-03T20:16:27.536Z,12.80
2022-12-03T20:20:30.625Z,13.95
2022-12-03T20:24:33.707Z,13.27
2022-12-03T20:28:37.176Z,12.93
2022-12-03T20:32:45.341Z,13.40
2022-12-03T20:36:48.713Z,12.57
2022-12-03T20:40:51.773Z,13.57
2022-12-03T20:44:55.334Z,13.23
2022-12-03T20:49:00.064Z,13.30
2022-12-03T20:53:23.649Z,13.55
2022-12-03T20:57:26.084Z,13.38
2022-12-03T21:01:29.576Z,13.05
2022-12-03T21:05:33.921Z,12.80
2022-12-03T21:09:37.136Z,13.43
2022-12-03T21:13:41.305Z,11.85
2022-12-03T21:17:44.341Z,12.15
2022-12-03T21:21:48.742Z,13.23
2022-12-03T21:25:52.871Z,13.00
2022-12-03T21:29:56.229Z,13.32
2022-12-03T21:34:00.005Z,13.60
2022-12-03T21:38:05.007Z,12.57
2022-12-03T21:42:34.718Z,13.25
2022-12-03T21:47:12.688Z,13.63
2022-12-03T21:51:01.502Z,13.10
2022-12-03T21:55:06.537Z,13.85
2022-12-03T21:59:09.694Z,14.70
2022-12-03T22:03:12.843Z,14.43
2022-12-03T22:07:15.949Z,13.32
2022-12-03T22:11:22.461Z,14.43
2022-12-03T22:15:25.552Z,14.68
2022-12-03T22:19:28.773Z,13.52
2022-12-03T22:23:32.526Z,14.23
2022-12-03T22:27:37.228Z,13.98
2022-12-03T22:31:40.292Z,13.93
2022-12-03T22:35:43.336Z,13.77
2022-12-03T22:39:46.284Z,13.55
2022-12-03T22:43:51.095Z,14.38
2022-12-03T22:47:54.032Z,15.25
2022-12-03T22:51:57.039Z,14.82
2022-12-03T22:56:01.439Z,15.48
2022-12-03T23:00:11.142Z,15.63
2022-12-03T23:04:14.506Z,15.02
2022-12-03T23:08:20.256Z,15.00
2022-12-03T23:12:23.405Z,14.82
2022-12-03T23:16:31.032Z,15.63
2022-12-03T23:20:34.107Z,16.25
2022-12-03T23:24:37.734Z,14.95
2022-12-03T23:28:43.042Z,15.98
2022-12-03T23:32:47.554Z,14.48
2022-12-03T23:36:50.571Z,15.45
2022-12-03T23:40:53.884Z,16.00
2022-12-03T23:44:56.901Z,16.27
2022-12-03T23:49:01.279Z,14.65
2022-12-03T23:53:04.459Z,15.10
2022-12-03T23:57:07.445Z,15.27
